Station History

Weather Underground - logo

Station Historical Data
Daily Summary for July 12, 2018 Units:  Both    English   Metric
« Previous Day
Next Day »
Daily Weekly Monthly Yearly Custom
  High: Low: Average:
Temperature: 99.8 °F /  37.7 °C 71.4 °F /  21.9 °C 85.9 °F /  29.9 °C
Dew Point: 67.8 °F /  19.9 °C 54.7 °F /  12.6 °C 60.8 °F /  16 °C
Humidity: 63 % 24 % 45 %
Wind Speed: 8.1 mph /  13 km/h - 1.4 mph /  2.3 km/h
Wind Gust: 3.3 mph /  5.3 km/h - -
Wind:- - WSW
Pressure: 29.86 in /  1011.1 hPa 29.77 in /  1008 hPa -
Precipitation: 0.00 in /  0 mm    
Historical Graphs
 
 
Tabular Data for July 12, 2018
Time Temperature Dew Point Pressure Wind Wind Speed Wind Gust Humidity Rainfall Rate (Hourly)
00:04 79.2 °F /  26.2 °C 61.1 °F /  16.2 °C 29.77 in /  1008 hPa SE 1.2 mph /  1.9 km/h 0.2 mph /  0.3 km/h 54 % 0.00 in /  0 mm
00:09 79.1 °F /  26.2 °C 60.5 °F /  15.8 °C 29.77 in /  1008 hPa SE 1.2 mph /  1.9 km/h   53 % 0.00 in /  0 mm
00:14 79.1 °F /  26.2 °C 59.4 °F /  15.2 °C 29.77 in /  1008 hPa Calm     51 % 0.00 in /  0 mm
00:19 79.1 °F /  26.2 °C 58.3 °F /  14.6 °C 29.77 in /  1008 hPa Calm     49 % 0.00 in /  0 mm
00:24 79.0 °F /  26.1 °C 58.2 °F /  14.6 °C 29.77 in /  1008 hPa Calm     49 % 0.00 in /  0 mm
00:29 78.8 °F /  26 °C 58.6 °F /  14.8 °C 29.77 in /  1008 hPa Calm     50 % 0.00 in /  0 mm
00:34 78.6 °F /  25.9 °C 57.8 °F /  14.3 °C 29.77 in /  1008 hPa Calm     49 % 0.00 in /  0 mm
00:39 78.4 °F /  25.8 °C 57.1 °F /  13.9 °C 29.78 in /  1008.4 hPa Calm     48 % 0.00 in /  0 mm
00:44 78.2 °F /  25.7 °C 57.5 °F /  14.2 °C 29.78 in /  1008.4 hPa Calm     49 % 0.00 in /  0 mm
00:49 78.0 °F /  25.6 °C 57.3 °F /  14.1 °C 29.78 in /  1008.4 hPa Calm     49 % 0.00 in /  0 mm
00:54 77.7 °F /  25.4 °C 57.0 °F /  13.9 °C 29.78 in /  1008.4 hPa Calm     49 % 0.00 in /  0 mm
00:59 77.4 °F /  25.2 °C 56.7 °F /  13.7 °C 29.78 in /  1008.4 hPa Calm     49 % 0.00 in /  0 mm
01:04 77.1 °F /  25.1 °C 56.5 °F /  13.6 °C 29.78 in /  1008.4 hPa Calm     49 % 0.00 in /  0 mm
01:09 77.0 °F /  25 °C 56.4 °F /  13.6 °C 29.78 in /  1008.4 hPa Calm     49 % 0.00 in /  0 mm
01:14 76.8 °F /  24.9 °C 56.8 °F /  13.8 °C 29.78 in /  1008.4 hPa Calm     50 % 0.00 in /  0 mm
01:19 76.4 °F /  24.7 °C 56.4 °F /  13.6 °C 29.78 in /  1008.4 hPa SE 1.2 mph /  1.9 km/h 0.3 mph /  0.5 km/h 50 % 0.00 in /  0 mm
01:24 76.6 °F /  24.8 °C 56.0 °F /  13.3 °C 29.78 in /  1008.4 hPa Calm     49 % 0.00 in /  0 mm
01:29 76.7 °F /  24.8 °C 56.1 °F /  13.4 °C 29.78 in /  1008.4 hPa Calm     49 % 0.00 in /  0 mm
01:34 76.6 °F /  24.8 °C 56.0 °F /  13.3 °C 29.78 in /  1008.4 hPa Calm     49 % 0.00 in /  0 mm
01:39 76.4 °F /  24.7 °C 55.8 °F /  13.2 °C 29.78 in /  1008.4 hPa Calm     49 % 0.00 in /  0 mm
01:44 76.2 °F /  24.6 °C 56.7 °F /  13.7 °C 29.78 in /  1008.4 hPa Calm     51 % 0.00 in /  0 mm
01:49 76.0 °F /  24.4 °C 56.6 °F /  13.7 °C 29.78 in /  1008.4 hPa Calm     51 % 0.00 in /  0 mm
01:54 75.7 °F /  24.3 °C 56.3 °F /  13.5 °C 29.78 in /  1008.4 hPa Calm     51 % 0.00 in /  0 mm
01:59 75.6 °F /  24.2 °C 56.2 °F /  13.4 °C 29.77 in /  1008 hPa Calm     51 % 0.00 in /  0 mm
02:04 75.5 °F /  24.2 °C 55.6 °F /  13.1 °C 29.77 in /  1008 hPa Calm     50 % 0.00 in /  0 mm
02:09 75.5 °F /  24.2 °C 55.6 °F /  13.1 °C 29.77 in /  1008 hPa Calm     50 % 0.00 in /  0 mm
02:14 75.5 °F /  24.2 °C 56.1 °F /  13.4 °C 29.77 in /  1008 hPa Calm     51 % 0.00 in /  0 mm
02:19 75.5 °F /  24.2 °C 55.6 °F /  13.1 °C 29.77 in /  1008 hPa Calm     50 % 0.00 in /  0 mm
02:24 75.6 °F /  24.2 °C 56.7 °F /  13.7 °C 29.77 in /  1008 hPa Calm     52 % 0.00 in /  0 mm
02:29 75.3 °F /  24.1 °C 56.5 °F /  13.6 °C 29.77 in /  1008 hPa Calm     52 % 0.00 in /  0 mm
02:34 75.1 °F /  23.9 °C 57.3 °F /  14.1 °C 29.77 in /  1008 hPa Calm     54 % 0.00 in /  0 mm
02:39 75.1 °F /  23.9 °C 55.7 °F /  13.2 °C 29.77 in /  1008 hPa Calm     51 % 0.00 in /  0 mm
02:44 75.4 °F /  24.1 °C 56.5 °F /  13.6 °C 29.77 in /  1008 hPa Calm     52 % 0.00 in /  0 mm
02:49 75.2 °F /  24 °C 56.4 °F /  13.6 °C 29.77 in /  1008 hPa Calm     52 % 0.00 in /  0 mm
02:54 74.9 °F /  23.8 °C 58.1 °F /  14.5 °C 29.77 in /  1008 hPa Calm     56 % 0.00 in /  0 mm
02:59 74.7 °F /  23.7 °C 55.9 °F /  13.3 °C 29.77 in /  1008 hPa Calm     52 % 0.00 in /  0 mm
03:04 74.7 °F /  23.7 °C 57.5 °F /  14.2 °C 29.77 in /  1008 hPa Calm     55 % 0.00 in /  0 mm
03:09 74.6 °F /  23.7 °C 57.4 °F /  14.1 °C 29.77 in /  1008 hPa Calm     55 % 0.00 in /  0 mm
03:14 74.4 °F /  23.6 °C 57.2 °F /  14 °C 29.77 in /  1008 hPa Calm     55 % 0.00 in /  0 mm
03:19 74.2 °F /  23.4 °C 58.0 °F /  14.4 °C 29.77 in /  1008 hPa Calm     57 % 0.00 in /  0 mm
03:24 74.1 °F /  23.4 °C 57.9 °F /  14.4 °C 29.77 in /  1008 hPa Calm     57 % 0.00 in /  0 mm
03:29 74.0 °F /  23.3 °C 56.8 °F /  13.8 °C 29.77 in /  1008 hPa Calm     55 % 0.00 in /  0 mm
03:34 73.9 °F /  23.3 °C 56.7 °F /  13.7 °C 29.77 in /  1008 hPa Calm     55 % 0.00 in /  0 mm
03:39 73.9 °F /  23.3 °C 57.7 °F /  14.3 °C 29.77 in /  1008 hPa Calm     57 % 0.00 in /  0 mm
03:44 74.0 °F /  23.3 °C 59.7 °F /  15.4 °C 29.77 in /  1008 hPa Calm     61 % 0.00 in /  0 mm
03:49 73.9 °F /  23.3 °C 58.7 °F /  14.8 °C 29.77 in /  1008 hPa Calm     59 % 0.00 in /  0 mm
03:54 73.7 °F /  23.2 °C 58.5 °F /  14.7 °C 29.77 in /  1008 hPa Calm     59 % 0.00 in /  0 mm
03:59 73.6 °F /  23.1 °C 58.4 °F /  14.7 °C 29.77 in /  1008 hPa Calm     59 % 0.00 in /  0 mm
04:04 73.6 °F /  23.1 °C 57.4 °F /  14.1 °C 29.77 in /  1008 hPa Calm     57 % 0.00 in /  0 mm
04:09 73.5 °F /  23.1 °C 57.8 °F /  14.3 °C 29.77 in /  1008 hPa Calm     58 % 0.00 in /  0 mm
04:14 73.4 °F /  23 °C 58.7 °F /  14.8 °C 29.77 in /  1008 hPa Calm     60 % 0.00 in /  0 mm
04:19 73.3 °F /  22.9 °C 58.1 °F /  14.5 °C 29.77 in /  1008 hPa Calm     59 % 0.00 in /  0 mm
04:24 73.3 °F /  22.9 °C 58.1 °F /  14.5 °C 29.77 in /  1008 hPa Calm     59 % 0.00 in /  0 mm
04:29 73.3 °F /  22.9 °C 58.6 °F /  14.8 °C 29.77 in /  1008 hPa Calm     60 % 0.00 in /  0 mm
04:34 73.3 °F /  22.9 °C 58.1 °F /  14.5 °C 29.77 in /  1008 hPa Calm     59 % 0.00 in /  0 mm
04:39 73.1 °F /  22.8 °C 57.4 °F /  14.1 °C 29.77 in /  1008 hPa Calm     58 % 0.00 in /  0 mm
04:44 73.1 °F /  22.8 °C 57.0 °F /  13.9 °C 29.78 in /  1008.4 hPa Calm     57 % 0.00 in /  0 mm
04:49 73.1 °F /  22.8 °C 56.5 °F /  13.6 °C 29.78 in /  1008.4 hPa Calm     56 % 0.00 in /  0 mm
04:54 73.2 °F /  22.9 °C 57.1 °F /  13.9 °C 29.78 in /  1008.4 hPa Calm     57 % 0.00 in /  0 mm
04:59 73.1 °F /  22.8 °C 57.0 °F /  13.9 °C 29.78 in /  1008.4 hPa ESE 1.0 mph /  1.6 km/h   57 % 0.00 in /  0 mm
05:04 73.1 °F /  22.8 °C 57.0 °F /  13.9 °C 29.79 in /  1008.7 hPa SE 1.0 mph /  1.6 km/h   57 % 0.00 in /  0 mm
05:09 73.1 °F /  22.8 °C 57.0 °F /  13.9 °C 29.79 in /  1008.7 hPa Calm     57 % 0.00 in /  0 mm
05:14 72.9 °F /  22.7 °C 56.3 °F /  13.5 °C 29.79 in /  1008.7 hPa Calm     56 % 0.00 in /  0 mm
05:19 72.8 °F /  22.7 °C 56.7 °F /  13.7 °C 29.80 in /  1009 hPa SE 1.2 mph /  1.9 km/h   57 % 0.00 in /  0 mm
05:24 72.6 °F /  22.6 °C 56.5 °F /  13.6 °C 29.80 in /  1009 hPa SE 1.2 mph /  1.9 km/h   57 % 0.00 in /  0 mm
05:29 72.4 °F /  22.4 °C 56.8 °F /  13.8 °C 29.80 in /  1009 hPa SE 1.2 mph /  1.9 km/h 0.1 mph /  0.2 km/h 58 % 0.00 in /  0 mm
05:34 72.3 °F /  22.4 °C 57.2 °F /  14 °C 29.80 in /  1009 hPa Calm     59 % 0.00 in /  0 mm
05:39 72.0 °F /  22.2 °C 56.9 °F /  13.8 °C 29.80 in /  1009 hPa Calm     59 % 0.00 in /  0 mm
05:44 71.9 °F /  22.2 °C 56.8 °F /  13.8 °C 29.81 in /  1009.4 hPa Calm     59 % 0.00 in /  0 mm
05:49 71.7 °F /  22.1 °C 57.1 °F /  13.9 °C 29.81 in /  1009.4 hPa Calm     60 % 0.00 in /  0 mm
05:54 71.6 °F /  22 °C 57.4 °F /  14.1 °C 29.81 in /  1009.4 hPa Calm     61 % 0.00 in /  0 mm
05:59 71.6 °F /  22 °C 57.0 °F /  13.9 °C 29.82 in /  1009.7 hPa SE 1.2 mph /  1.9 km/h 0.1 mph /  0.2 km/h 60 % 0.00 in /  0 mm
06:04 71.4 °F /  21.9 °C 56.8 °F /  13.8 °C 29.82 in /  1009.7 hPa SE 1.2 mph /  1.9 km/h 0.1 mph /  0.2 km/h 60 % 0.00 in /  0 mm
06:09 71.4 °F /  21.9 °C 56.8 °F /  13.8 °C 29.82 in /  1009.7 hPa Calm     60 % 0.00 in /  0 mm
06:14 71.4 °F /  21.9 °C 56.8 °F /  13.8 °C 29.82 in /  1009.7 hPa ESE 1.2 mph /  1.9 km/h   60 % 0.00 in /  0 mm
06:19 71.6 °F /  22 °C 57.0 °F /  13.9 °C 29.82 in /  1009.7 hPa ESE 1.2 mph /  1.9 km/h 0.1 mph /  0.2 km/h 60 % 0.00 in /  0 mm
06:24 71.8 °F /  22.1 °C 57.2 °F /  14 °C 29.83 in /  1010 hPa ESE 1.2 mph /  1.9 km/h   60 % 0.00 in /  0 mm
06:29 72.1 °F /  22.3 °C 57.0 °F /  13.9 °C 29.83 in /  1010 hPa East 1.2 mph /  1.9 km/h 0.1 mph /  0.2 km/h 59 % 0.00 in /  0 mm
06:34 72.4 °F /  22.4 °C 57.3 °F /  14.1 °C 29.83 in /  1010 hPa SSE 1.2 mph /  1.9 km/h   59 % 0.00 in /  0 mm
06:39 72.5 °F /  22.5 °C 57.4 °F /  14.1 °C 29.83 in /  1010 hPa Calm     59 % 0.00 in /  0 mm
06:44 72.7 °F /  22.6 °C 57.5 °F /  14.2 °C 29.83 in /  1010 hPa Calm     59 % 0.00 in /  0 mm
06:49 72.9 °F /  22.7 °C 57.7 °F /  14.3 °C 29.84 in /  1010.4 hPa Calm     59 % 0.00 in /  0 mm
06:54 73.1 °F /  22.8 °C 57.9 °F /  14.4 °C 29.84 in /  1010.4 hPa Calm     59 % 0.00 in /  0 mm
06:59 73.3 °F /  22.9 °C 58.1 °F /  14.5 °C 29.84 in /  1010.4 hPa Calm     59 % 0.00 in /  0 mm
07:04 73.6 °F /  23.1 °C 58.4 °F /  14.7 °C 29.84 in /  1010.4 hPa Calm     59 % 0.00 in /  0 mm
07:09 73.9 °F /  23.3 °C 58.7 °F /  14.8 °C 29.84 in /  1010.4 hPa Calm     59 % 0.00 in /  0 mm
07:14 74.2 °F /  23.4 °C 59.9 °F /  15.5 °C 29.84 in /  1010.4 hPa Calm     61 % 0.00 in /  0 mm
07:19 74.6 °F /  23.7 °C 59.8 °F /  15.4 °C 29.84 in /  1010.4 hPa Calm     60 % 0.00 in /  0 mm
07:24 75.8 °F /  24.3 °C 60.0 °F /  15.6 °C 29.84 in /  1010.4 hPa Calm     58 % 0.00 in /  0 mm
07:29 77.0 °F /  25 °C 59.1 °F /  15.1 °C 29.85 in /  1010.7 hPa ESE 2.3 mph /  3.7 km/h 0.8 mph /  1.3 km/h 54 % 0.00 in /  0 mm
07:34 77.6 °F /  25.3 °C 59.1 °F /  15.1 °C 29.85 in /  1010.7 hPa SE 1.2 mph /  1.9 km/h   53 % 0.00 in /  0 mm
07:39 79.0 °F /  26.1 °C 58.8 °F /  14.9 °C 29.85 in /  1010.7 hPa SSE 1.2 mph /  1.9 km/h   50 % 0.00 in /  0 mm
07:44 80.2 °F /  26.8 °C 59.9 °F /  15.5 °C 29.85 in /  1010.7 hPa Calm     50 % 0.00 in /  0 mm
07:49 81.5 °F /  27.5 °C 59.9 °F /  15.5 °C 29.85 in /  1010.7 hPa SSE 2.3 mph /  3.7 km/h 0.1 mph /  0.2 km/h 48 % 0.00 in /  0 mm
07:54 82.1 °F /  27.8 °C 60.5 °F /  15.8 °C 29.85 in /  1010.7 hPa SSE 1.2 mph /  1.9 km/h   48 % 0.00 in /  0 mm
07:59 82.4 °F /  28 °C 59.5 °F /  15.3 °C 29.85 in /  1010.7 hPa SSW 2.3 mph /  3.7 km/h 0.5 mph /  0.8 km/h 46 % 0.00 in /  0 mm
08:00 82.4 °F /  28 °C 59.5 °F /  15.3 °C 29.85 in /  1010.7 hPa SSW 1.2 mph /  1.9 km/h 0.5 mph /  0.8 km/h 46 % 0.00 in /  0 mm
08:09 83.4 °F /  28.6 °C 59.8 °F /  15.4 °C 29.85 in /  1010.7 hPa South 2.3 mph /  3.7 km/h 0.7 mph /  1.1 km/h 45 % 0.00 in /  0 mm
08:14 83.6 °F /  28.7 °C 59.4 °F /  15.2 °C 29.85 in /  1010.7 hPa ENE 2.0 mph /  3.2 km/h 1.0 mph /  1.6 km/h 44 % 0.00 in /  0 mm
08:19 83.8 °F /  28.8 °C 58.9 °F /  14.9 °C 29.85 in /  1010.7 hPa Calm     43 % 0.00 in /  0 mm
08:24 84.3 °F /  29.1 °C 58.0 °F /  14.4 °C 29.85 in /  1010.7 hPa ESE 3.5 mph /  5.6 km/h 0.8 mph /  1.3 km/h 41 % 0.00 in /  0 mm
08:29 84.2 °F /  29 °C 58.6 °F /  14.8 °C 29.85 in /  1010.7 hPa SE 2.3 mph /  3.7 km/h 0.7 mph /  1.1 km/h 42 % 0.00 in /  0 mm
08:34 84.3 °F /  29.1 °C 58.7 °F /  14.8 °C 29.85 in /  1010.7 hPa SSE 2.3 mph /  3.7 km/h 0.4 mph /  0.6 km/h 42 % 0.00 in /  0 mm
08:39 85.1 °F /  29.5 °C 58.1 °F /  14.5 °C 29.85 in /  1010.7 hPa ESE 2.3 mph /  3.7 km/h 0.8 mph /  1.3 km/h 40 % 0.00 in /  0 mm
08:44 85.3 °F /  29.6 °C 58.2 °F /  14.6 °C 29.84 in /  1010.4 hPa SE 2.3 mph /  3.7 km/h 0.6 mph /  1 km/h 40 % 0.00 in /  0 mm
08:49 85.9 °F /  29.9 °C 58.8 °F /  14.9 °C 29.84 in /  1010.4 hPa ESE 2.3 mph /  3.7 km/h 0.2 mph /  0.3 km/h 40 % 0.00 in /  0 mm
08:54 86.7 °F /  30.4 °C 60.2 °F /  15.7 °C 29.85 in /  1010.7 hPa SE 1.2 mph /  1.9 km/h 0.1 mph /  0.2 km/h 41 % 0.00 in /  0 mm
08:59 87.3 °F /  30.7 °C 60.0 °F /  15.6 °C 29.85 in /  1010.7 hPa Calm     40 % 0.00 in /  0 mm
09:04 87.7 °F /  30.9 °C 60.4 °F /  15.8 °C 29.85 in /  1010.7 hPa Calm     40 % 0.00 in /  0 mm
09:09 88.0 °F /  31.1 °C 62.0 °F /  16.7 °C 29.85 in /  1010.7 hPa Calm     42 % 0.00 in /  0 mm
09:14 88.4 °F /  31.3 °C 60.3 °F /  15.7 °C 29.85 in /  1010.7 hPa SSE 2.3 mph /  3.7 km/h 0.4 mph /  0.6 km/h 39 % 0.00 in /  0 mm
09:19 88.7 °F /  31.5 °C 60.6 °F /  15.9 °C 29.84 in /  1010.4 hPa Calm   0.6 mph /  1 km/h 39 % 0.00 in /  0 mm
09:24 89.2 °F /  31.8 °C 61.0 °F /  16.1 °C 29.85 in /  1010.7 hPa South 2.3 mph /  3.7 km/h 0.2 mph /  0.3 km/h 39 % 0.00 in /  0 mm
09:29 89.9 °F /  32.2 °C 62.3 °F /  16.8 °C 29.85 in /  1010.7 hPa WNW 1.2 mph /  1.9 km/h 0.1 mph /  0.2 km/h 40 % 0.00 in /  0 mm
09:34 90.1 °F /  32.3 °C 62.5 °F /  16.9 °C 29.84 in /  1010.4 hPa NW 1.2 mph /  1.9 km/h   40 % 0.00 in /  0 mm
09:39 90.1 °F /  32.3 °C 63.2 °F /  17.3 °C 29.85 in /  1010.7 hPa Calm     41 % 0.00 in /  0 mm
09:44 90.2 °F /  32.3 °C 62.6 °F /  17 °C 29.85 in /  1010.7 hPa WNW 1.2 mph /  1.9 km/h 0.1 mph /  0.2 km/h 40 % 0.00 in /  0 mm
09:49 90.4 °F /  32.4 °C 61.3 °F /  16.3 °C 29.85 in /  1010.7 hPa SE 2.3 mph /  3.7 km/h 0.9 mph /  1.4 km/h 38 % 0.00 in /  0 mm
09:54 90.4 °F /  32.4 °C 62.1 °F /  16.7 °C 29.85 in /  1010.7 hPa NW 2.3 mph /  3.7 km/h 0.8 mph /  1.3 km/h 39 % 0.00 in /  0 mm
09:59 90.6 °F /  32.6 °C 63.7 °F /  17.6 °C 29.85 in /  1010.7 hPa NW 1.2 mph /  1.9 km/h 0.5 mph /  0.8 km/h 41 % 0.00 in /  0 mm
10:04 90.6 °F /  32.6 °C 62.3 °F /  16.8 °C 29.85 in /  1010.7 hPa NNE 2.3 mph /  3.7 km/h 0.5 mph /  0.8 km/h 39 % 0.00 in /  0 mm
10:09 90.7 °F /  32.6 °C 63.1 °F /  17.3 °C 29.85 in /  1010.7 hPa NE 1.2 mph /  1.9 km/h 0.5 mph /  0.8 km/h 40 % 0.00 in /  0 mm
10:14 91.1 °F /  32.8 °C 62.7 °F /  17.1 °C 29.85 in /  1010.7 hPa South 3.5 mph /  5.6 km/h 1.2 mph /  1.9 km/h 39 % 0.00 in /  0 mm
10:19 91.6 °F /  33.1 °C 65.3 °F /  18.5 °C 29.85 in /  1010.7 hPa North 3.5 mph /  5.6 km/h 0.7 mph /  1.1 km/h 42 % 0.00 in /  0 mm
10:24 92.2 °F /  33.4 °C 62.9 °F /  17.2 °C 29.85 in /  1010.7 hPa NW 1.2 mph /  1.9 km/h 0.6 mph /  1 km/h 38 % 0.00 in /  0 mm
10:29 92.4 °F /  33.6 °C 63.1 °F /  17.3 °C 29.85 in /  1010.7 hPa NE 3.5 mph /  5.6 km/h 1.1 mph /  1.8 km/h 38 % 0.00 in /  0 mm
10:34 92.3 °F /  33.5 °C 63.0 °F /  17.2 °C 29.86 in /  1011.1 hPa North 3.5 mph /  5.6 km/h 1.6 mph /  2.6 km/h 38 % 0.00 in /  0 mm
10:39 92.6 °F /  33.7 °C 63.3 °F /  17.4 °C 29.86 in /  1011.1 hPa NNW 3.5 mph /  5.6 km/h 0.3 mph /  0.5 km/h 38 % 0.00 in /  0 mm
10:44 93.2 °F /  34 °C 64.6 °F /  18.1 °C 29.86 in /  1011.1 hPa ESE 3.5 mph /  5.6 km/h 0.7 mph /  1.1 km/h 39 % 0.00 in /  0 mm
10:49 93.3 °F /  34.1 °C 63.1 °F /  17.3 °C 29.86 in /  1011.1 hPa NNE 2.3 mph /  3.7 km/h 0.3 mph /  0.5 km/h 37 % 0.00 in /  0 mm
10:54 93.2 °F /  34 °C 61.5 °F /  16.4 °C 29.86 in /  1011.1 hPa North 3.5 mph /  5.6 km/h 1.5 mph /  2.4 km/h 35 % 0.00 in /  0 mm
10:59 93.3 °F /  34.1 °C 62.4 °F /  16.9 °C 29.86 in /  1011.1 hPa NNW 1.2 mph /  1.9 km/h 0.1 mph /  0.2 km/h 36 % 0.00 in /  0 mm
11:04 93.6 °F /  34.2 °C 61.8 °F /  16.6 °C 29.86 in /  1011.1 hPa NW 2.3 mph /  3.7 km/h   35 % 0.00 in /  0 mm
11:09 94.0 °F /  34.4 °C 61.4 °F /  16.3 °C 29.86 in /  1011.1 hPa North 3.5 mph /  5.6 km/h 0.1 mph /  0.2 km/h 34 % 0.00 in /  0 mm
11:14 93.9 °F /  34.4 °C 60.4 °F /  15.8 °C 29.86 in /  1011.1 hPa North 2.3 mph /  3.7 km/h 0.2 mph /  0.3 km/h 33 % 0.00 in /  0 mm
11:19 94.4 °F /  34.7 °C 60.9 °F /  16.1 °C 29.86 in /  1011.1 hPa West 2.3 mph /  3.7 km/h 0.6 mph /  1 km/h 33 % 0.00 in /  0 mm
11:24 95.1 °F /  35.1 °C 62.3 °F /  16.8 °C 29.86 in /  1011.1 hPa NNW 1.2 mph /  1.9 km/h 0.2 mph /  0.3 km/h 34 % 0.00 in /  0 mm
11:29 95.6 °F /  35.3 °C 61.0 °F /  16.1 °C 29.86 in /  1011.1 hPa SE 3.5 mph /  5.6 km/h 0.1 mph /  0.2 km/h 32 % 0.00 in /  0 mm
11:34 95.7 °F /  35.4 °C 59.3 °F /  15.2 °C 29.86 in /  1011.1 hPa NW 3.5 mph /  5.6 km/h 0.6 mph /  1 km/h 30 % 0.00 in /  0 mm
11:39 95.9 °F /  35.5 °C 60.4 °F /  15.8 °C 29.86 in /  1011.1 hPa SE 1.2 mph /  1.9 km/h 0.1 mph /  0.2 km/h 31 % 0.00 in /  0 mm
11:44 96.1 °F /  35.6 °C 58.7 °F /  14.8 °C 29.86 in /  1011.1 hPa NW 2.3 mph /  3.7 km/h 1.3 mph /  2.1 km/h 29 % 0.00 in /  0 mm
11:49 95.7 °F /  35.4 °C 58.4 °F /  14.7 °C 29.86 in /  1011.1 hPa NW 2.3 mph /  3.7 km/h 0.6 mph /  1 km/h 29 % 0.00 in /  0 mm
11:54 95.9 °F /  35.5 °C 56.5 °F /  13.6 °C 29.86 in /  1011.1 hPa West 1.2 mph /  1.9 km/h 0.5 mph /  0.8 km/h 27 % 0.00 in /  0 mm
11:59 96.3 °F /  35.7 °C 57.9 °F /  14.4 °C 29.86 in /  1011.1 hPa SW 1.2 mph /  1.9 km/h 0.9 mph /  1.4 km/h 28 % 0.00 in /  0 mm
12:04 96.7 °F /  35.9 °C 55.1 °F /  12.8 °C 29.86 in /  1011.1 hPa NW 3.5 mph /  5.6 km/h 0.7 mph /  1.1 km/h 25 % 0.00 in /  0 mm
12:09 96.7 °F /  35.9 °C 57.2 °F /  14 °C 29.85 in /  1010.7 hPa East 2.3 mph /  3.7 km/h 0.8 mph /  1.3 km/h 27 % 0.00 in /  0 mm
12:14 97.3 °F /  36.3 °C 61.6 °F /  16.4 °C 29.85 in /  1010.7 hPa ENE 1.2 mph /  1.9 km/h 0.2 mph /  0.3 km/h 31 % 0.00 in /  0 mm
12:19 97.5 °F /  36.4 °C 61.8 °F /  16.6 °C 29.85 in /  1010.7 hPa WNW 3.5 mph /  5.6 km/h 0.2 mph /  0.3 km/h 31 % 0.00 in /  0 mm
12:24 97.8 °F /  36.6 °C 61.1 °F /  16.2 °C 29.85 in /  1010.7 hPa SE 1.2 mph /  1.9 km/h   30 % 0.00 in /  0 mm
12:29 98.0 °F /  36.7 °C 58.3 °F /  14.6 °C 29.85 in /  1010.7 hPa NW 3.5 mph /  5.6 km/h 1.2 mph /  1.9 km/h 27 % 0.00 in /  0 mm
12:34 97.9 °F /  36.6 °C 61.2 °F /  16.2 °C 29.85 in /  1010.7 hPa WNW 1.2 mph /  1.9 km/h   30 % 0.00 in /  0 mm
12:39 98.0 °F /  36.7 °C 57.3 °F /  14.1 °C 29.85 in /  1010.7 hPa NW 3.5 mph /  5.6 km/h 2.4 mph /  3.9 km/h 26 % 0.00 in /  0 mm
12:44 98.2 °F /  36.8 °C 58.5 °F /  14.7 °C 29.84 in /  1010.4 hPa West 2.3 mph /  3.7 km/h 0.7 mph /  1.1 km/h 27 % 0.00 in /  0 mm
12:49 98.5 °F /  36.9 °C 58.8 °F /  14.9 °C 29.84 in /  1010.4 hPa NNW 2.3 mph /  3.7 km/h 0.1 mph /  0.2 km/h 27 % 0.00 in /  0 mm
12:54 98.4 °F /  36.9 °C 57.6 °F /  14.2 °C 29.84 in /  1010.4 hPa NW 3.5 mph /  5.6 km/h 0.7 mph /  1.1 km/h 26 % 0.00 in /  0 mm
12:59 98.0 °F /  36.7 °C 57.3 °F /  14.1 °C 29.84 in /  1010.4 hPa WNW 3.5 mph /  5.6 km/h 1.4 mph /  2.3 km/h 26 % 0.00 in /  0 mm
13:04 98.3 °F /  36.8 °C 57.5 °F /  14.2 °C 29.84 in /  1010.4 hPa NW 3.5 mph /  5.6 km/h 1.9 mph /  3.1 km/h 26 % 0.00 in /  0 mm
13:09 98.5 °F /  36.9 °C 55.5 °F /  13.1 °C 29.84 in /  1010.4 hPa NW 3.5 mph /  5.6 km/h 2.1 mph /  3.4 km/h 24 % 0.00 in /  0 mm
13:14 98.3 °F /  36.8 °C 55.3 °F /  12.9 °C 29.84 in /  1010.4 hPa SW 1.2 mph /  1.9 km/h 0.4 mph /  0.6 km/h 24 % 0.00 in /  0 mm
13:19 99.2 °F /  37.3 °C 57.2 °F /  14 °C 29.84 in /  1010.4 hPa WNW 2.0 mph /  3.2 km/h 1.2 mph /  1.9 km/h 25 % 0.00 in /  0 mm
13:24 99.7 °F /  37.6 °C 56.5 °F /  13.6 °C 29.83 in /  1010 hPa North 4.0 mph /  6.4 km/h 1.2 mph /  1.9 km/h 24 % 0.00 in /  0 mm
13:28 99.8 °F /  37.7 °C 56.6 °F /  13.7 °C 29.83 in /  1010 hPa NW 3.5 mph /  5.6 km/h 0.6 mph /  1 km/h 24 % 0.00 in /  0 mm
13:34 99.3 °F /  37.4 °C 56.1 °F /  13.4 °C 29.84 in /  1010.4 hPa NNW 5.0 mph /  8 km/h 3.3 mph /  5.3 km/h 24 % 0.00 in /  0 mm
13:39 98.9 °F /  37.2 °C 55.8 °F /  13.2 °C 29.84 in /  1010.4 hPa NW 2.3 mph /  3.7 km/h 1.3 mph /  2.1 km/h 24 % 0.00 in /  0 mm
13:39 98.9 °F /  37.2 °C 55.8 °F /  13.2 °C 29.84 in /  1010.4 hPa NW 2.3 mph /  3.7 km/h 1.0 mph /  1.6 km/h 24 % 0.00 in /  0 mm
13:44 98.1 °F /  36.7 °C 55.1 °F /  12.8 °C 29.84 in /  1010.4 hPa NW 3.5 mph /  5.6 km/h 2.5 mph /  4 km/h 24 % 0.00 in /  0 mm
13:47 97.6 °F /  36.4 °C 54.7 °F /  12.6 °C 29.84 in /  1010.4 hPa WNW 3.5 mph /  5.6 km/h 1.6 mph /  2.6 km/h 24 % 0.00 in /  0 mm
13:49 97.4 °F /  36.3 °C 56.8 °F /  13.8 °C 29.83 in /  1010 hPa NNE 3.0 mph /  4.8 km/h 2.2 mph /  3.5 km/h 26 % 0.00 in /  0 mm
13:54 97.0 °F /  36.1 °C 56.4 °F /  13.6 °C 29.83 in /  1010 hPa NW 3.5 mph /  5.6 km/h 1.1 mph /  1.8 km/h 26 % 0.00 in /  0 mm
13:59 96.4 °F /  35.8 °C 55.9 °F /  13.3 °C 29.83 in /  1010 hPa NNW 5.8 mph /  9.3 km/h 1.9 mph /  3.1 km/h 26 % 0.00 in /  0 mm
14:04 95.5 °F /  35.3 °C 55.2 °F /  12.9 °C 29.83 in /  1010 hPa WNW 4.6 mph /  7.4 km/h 1.9 mph /  3.1 km/h 26 % 0.00 in /  0 mm
14:09 95.0 °F /  35 °C 56.8 °F /  13.8 °C 29.83 in /  1010 hPa NW 8.1 mph /  13 km/h 2.0 mph /  3.2 km/h 28 % 0.00 in /  0 mm
14:14 94.6 °F /  34.8 °C 56.4 °F /  13.6 °C 29.83 in /  1010 hPa NW 6.9 mph /  11.1 km/h 2.1 mph /  3.4 km/h 28 % 0.00 in /  0 mm
14:19 94.2 °F /  34.6 °C 57.1 °F /  13.9 °C 29.83 in /  1010 hPa NW 3.5 mph /  5.6 km/h 2.0 mph /  3.2 km/h 29 % 0.00 in /  0 mm
14:24 94.0 °F /  34.4 °C 57.8 °F /  14.3 °C 29.83 in /  1010 hPa NW 5.0 mph /  8 km/h 1.4 mph /  2.3 km/h 30 % 0.00 in /  0 mm
14:29 93.5 °F /  34.2 °C 56.5 °F /  13.6 °C 29.83 in /  1010 hPa NW 3.5 mph /  5.6 km/h 3.3 mph /  5.3 km/h 29 % 0.00 in /  0 mm
14:34 93.0 °F /  33.9 °C 58.8 °F /  14.9 °C 29.83 in /  1010 hPa WNW 6.9 mph /  11.1 km/h 3.2 mph /  5.1 km/h 32 % 0.00 in /  0 mm
14:39 92.2 °F /  33.4 °C 61.4 °F /  16.3 °C 29.83 in /  1010 hPa WNW 3.5 mph /  5.6 km/h 1.6 mph /  2.6 km/h 36 % 0.00 in /  0 mm
14:44 91.3 °F /  32.9 °C 61.4 °F /  16.3 °C 29.83 in /  1010 hPa NW 3.5 mph /  5.6 km/h 1.2 mph /  1.9 km/h 37 % 0.00 in /  0 mm
14:49 90.6 °F /  32.6 °C 62.3 °F /  16.8 °C 29.83 in /  1010 hPa North 3.5 mph /  5.6 km/h 1.8 mph /  2.9 km/h 39 % 0.00 in /  0 mm
14:54 90.3 °F /  32.4 °C 62.7 °F /  17.1 °C 29.83 in /  1010 hPa WNW 3.5 mph /  5.6 km/h 1.2 mph /  1.9 km/h 40 % 0.00 in /  0 mm
14:59 90.2 °F /  32.3 °C 62.6 °F /  17 °C 29.83 in /  1010 hPa NNW 2.3 mph /  3.7 km/h 0.7 mph /  1.1 km/h 40 % 0.00 in /  0 mm
15:04 90.1 °F /  32.3 °C 62.5 °F /  16.9 °C 29.83 in /  1010 hPa NW 1.2 mph /  1.9 km/h 0.7 mph /  1.1 km/h 40 % 0.00 in /  0 mm
15:09 90.3 °F /  32.4 °C 64.1 °F /  17.8 °C 29.83 in /  1010 hPa WNW 1.2 mph /  1.9 km/h 0.1 mph /  0.2 km/h 42 % 0.00 in /  0 mm
15:14 90.6 °F /  32.6 °C 60.8 °F /  16 °C 29.82 in /  1009.7 hPa NW 2.3 mph /  3.7 km/h 1.9 mph /  3.1 km/h 37 % 0.00 in /  0 mm
15:19 91.0 °F /  32.8 °C 60.3 °F /  15.7 °C 29.82 in /  1009.7 hPa NW 3.5 mph /  5.6 km/h 0.9 mph /  1.4 km/h 36 % 0.00 in /  0 mm
15:24 91.5 °F /  33.1 °C 60.8 °F /  16 °C 29.82 in /  1009.7 hPa WNW 2.3 mph /  3.7 km/h 1.3 mph /  2.1 km/h 36 % 0.00 in /  0 mm
15:29 91.8 °F /  33.2 °C 61.0 °F /  16.1 °C 29.82 in /  1009.7 hPa WNW 1.2 mph /  1.9 km/h 0.7 mph /  1.1 km/h 36 % 0.00 in /  0 mm
15:34 92.1 °F /  33.4 °C 61.3 °F /  16.3 °C 29.81 in /  1009.4 hPa NW 1.2 mph /  1.9 km/h 0.2 mph /  0.3 km/h 36 % 0.00 in /  0 mm
15:39 92.6 °F /  33.7 °C 62.5 °F /  16.9 °C 29.81 in /  1009.4 hPa Calm   0.6 mph /  1 km/h 37 % 0.00 in /  0 mm
15:44 92.7 °F /  33.7 °C 61.0 °F /  16.1 °C 29.81 in /  1009.4 hPa NW 2.3 mph /  3.7 km/h 0.2 mph /  0.3 km/h 35 % 0.00 in /  0 mm
15:49 92.8 °F /  33.8 °C 61.9 °F /  16.6 °C 29.81 in /  1009.4 hPa NW 2.3 mph /  3.7 km/h 0.5 mph /  0.8 km/h 36 % 0.00 in /  0 mm
15:54 92.8 °F /  33.8 °C 62.7 °F /  17.1 °C 29.80 in /  1009 hPa NW 1.2 mph /  1.9 km/h 0.7 mph /  1.1 km/h 37 % 0.00 in /  0 mm
15:59 93.0 °F /  33.9 °C 62.9 °F /  17.2 °C 29.80 in /  1009 hPa NW 2.3 mph /  3.7 km/h 0.7 mph /  1.1 km/h 37 % 0.00 in /  0 mm
16:04 93.2 °F /  34 °C 62.3 °F /  16.8 °C 29.80 in /  1009 hPa NW 2.3 mph /  3.7 km/h 1.7 mph /  2.7 km/h 36 % 0.00 in /  0 mm
16:09 93.4 °F /  34.1 °C 63.2 °F /  17.3 °C 29.81 in /  1009.4 hPa NW 2.3 mph /  3.7 km/h 0.2 mph /  0.3 km/h 37 % 0.00 in /  0 mm
16:14 93.6 °F /  34.2 °C 62.6 °F /  17 °C 29.81 in /  1009.4 hPa WNW 3.0 mph /  4.8 km/h 2.0 mph /  3.2 km/h 36 % 0.00 in /  0 mm
16:19 93.7 °F /  34.3 °C 62.7 °F /  17.1 °C 29.80 in /  1009 hPa NW 2.3 mph /  3.7 km/h 1.6 mph /  2.6 km/h 36 % 0.00 in /  0 mm
16:24 93.9 °F /  34.4 °C 62.9 °F /  17.2 °C 29.80 in /  1009 hPa WNW 1.2 mph /  1.9 km/h 1.1 mph /  1.8 km/h 36 % 0.00 in /  0 mm
16:29 94.1 °F /  34.5 °C 63.1 °F /  17.3 °C 29.80 in /  1009 hPa WNW 4.0 mph /  6.4 km/h 1.7 mph /  2.7 km/h 36 % 0.00 in /  0 mm
16:34 94.0 °F /  34.4 °C 63.8 °F /  17.7 °C 29.80 in /  1009 hPa NW 2.0 mph /  3.2 km/h 1.2 mph /  1.9 km/h 37 % 0.00 in /  0 mm
16:39 94.0 °F /  34.4 °C 63.8 °F /  17.7 °C 29.80 in /  1009 hPa NW 2.3 mph /  3.7 km/h   37 % 0.00 in /  0 mm
16:44 94.3 °F /  34.6 °C 64.8 °F /  18.2 °C 29.80 in /  1009 hPa NW 2.3 mph /  3.7 km/h 1.3 mph /  2.1 km/h 38 % 0.00 in /  0 mm
16:49 94.3 °F /  34.6 °C 62.4 °F /  16.9 °C 29.80 in /  1009 hPa NNW 2.3 mph /  3.7 km/h 1.1 mph /  1.8 km/h 35 % 0.00 in /  0 mm
16:54 94.3 °F /  34.6 °C 64.0 °F /  17.8 °C 29.80 in /  1009 hPa NW 1.2 mph /  1.9 km/h 1.4 mph /  2.3 km/h 37 % 0.00 in /  0 mm
16:59 94.8 °F /  34.9 °C 64.5 °F /  18.1 °C 29.80 in /  1009 hPa NNW 3.5 mph /  5.6 km/h 0.4 mph /  0.6 km/h 37 % 0.00 in /  0 mm
17:04 95.8 °F /  35.4 °C 65.4 °F /  18.6 °C 29.79 in /  1008.7 hPa West 1.2 mph /  1.9 km/h 0.4 mph /  0.6 km/h 37 % 0.00 in /  0 mm
17:09 96.7 °F /  35.9 °C 64.5 °F /  18.1 °C 29.79 in /  1008.7 hPa NW 3.0 mph /  4.8 km/h 1.7 mph /  2.7 km/h 35 % 0.00 in /  0 mm
17:14 96.7 °F /  35.9 °C 63.7 °F /  17.6 °C 29.79 in /  1008.7 hPa WNW 3.5 mph /  5.6 km/h 0.6 mph /  1 km/h 34 % 0.00 in /  0 mm
17:19 96.7 °F /  35.9 °C 64.5 °F /  18.1 °C 29.79 in /  1008.7 hPa NW 3.5 mph /  5.6 km/h 2.2 mph /  3.5 km/h 35 % 0.00 in /  0 mm
17:24 96.4 °F /  35.8 °C 65.1 °F /  18.4 °C 29.79 in /  1008.7 hPa NW 2.3 mph /  3.7 km/h 1.6 mph /  2.6 km/h 36 % 0.00 in /  0 mm
17:29 96.0 °F /  35.6 °C 64.7 °F /  18.2 °C 29.79 in /  1008.7 hPa NNW 1.2 mph /  1.9 km/h 1.1 mph /  1.8 km/h 36 % 0.00 in /  0 mm
17:34 95.7 °F /  35.4 °C 63.7 °F /  17.6 °C 29.79 in /  1008.7 hPa NW 2.3 mph /  3.7 km/h 1.2 mph /  1.9 km/h 35 % 0.00 in /  0 mm
17:39 95.3 °F /  35.2 °C 64.1 °F /  17.8 °C 29.79 in /  1008.7 hPa NW 2.3 mph /  3.7 km/h 0.1 mph /  0.2 km/h 36 % 0.00 in /  0 mm
17:44 95.3 °F /  35.2 °C 64.9 °F /  18.3 °C 29.78 in /  1008.4 hPa NW 1.2 mph /  1.9 km/h 0.7 mph /  1.1 km/h 37 % 0.00 in /  0 mm
17:49 95.9 °F /  35.5 °C 64.7 °F /  18.2 °C 29.78 in /  1008.4 hPa NW 3.5 mph /  5.6 km/h 1.9 mph /  3.1 km/h 36 % 0.00 in /  0 mm
17:54 96.2 °F /  35.7 °C 65.7 °F /  18.7 °C 29.78 in /  1008.4 hPa NW 2.3 mph /  3.7 km/h 1.2 mph /  1.9 km/h 37 % 0.00 in /  0 mm
17:59 96.5 °F /  35.8 °C 65.2 °F /  18.4 °C 29.77 in /  1008 hPa WNW 1.2 mph /  1.9 km/h 1.0 mph /  1.6 km/h 36 % 0.00 in /  0 mm
18:04 96.6 °F /  35.9 °C 65.3 °F /  18.5 °C 29.77 in /  1008 hPa NW 2.3 mph /  3.7 km/h 1.6 mph /  2.6 km/h 36 % 0.00 in /  0 mm
18:09 96.6 °F /  35.9 °C 64.5 °F /  18.1 °C 29.77 in /  1008 hPa NW 3.5 mph /  5.6 km/h 0.7 mph /  1.1 km/h 35 % 0.00 in /  0 mm
18:14 96.8 °F /  36 °C 63.8 °F /  17.7 °C 29.77 in /  1008 hPa WNW 2.3 mph /  3.7 km/h 0.9 mph /  1.4 km/h 34 % 0.00 in /  0 mm
18:19 97.0 °F /  36.1 °C 64.0 °F /  17.8 °C 29.77 in /  1008 hPa NW 2.3 mph /  3.7 km/h 1.1 mph /  1.8 km/h 34 % 0.00 in /  0 mm
18:24 97.0 °F /  36.1 °C 64.8 °F /  18.2 °C 29.77 in /  1008 hPa North 2.3 mph /  3.7 km/h 1.7 mph /  2.7 km/h 35 % 0.00 in /  0 mm
18:29 97.1 °F /  36.2 °C 64.1 °F /  17.8 °C 29.77 in /  1008 hPa NW 1.2 mph /  1.9 km/h 1.0 mph /  1.6 km/h 34 % 0.00 in /  0 mm
18:34 97.1 °F /  36.2 °C 64.1 °F /  17.8 °C 29.77 in /  1008 hPa NW 3.5 mph /  5.6 km/h 1.4 mph /  2.3 km/h 34 % 0.00 in /  0 mm
18:39 97.0 °F /  36.1 °C 65.6 °F /  18.7 °C 29.78 in /  1008.4 hPa NW 3.5 mph /  5.6 km/h 1.4 mph /  2.3 km/h 36 % 0.00 in /  0 mm
18:44 97.0 °F /  36.1 °C 64.8 °F /  18.2 °C 29.78 in /  1008.4 hPa NW 2.0 mph /  3.2 km/h 0.9 mph /  1.4 km/h 35 % 0.00 in /  0 mm
18:49 96.9 °F /  36.1 °C 64.7 °F /  18.2 °C 29.78 in /  1008.4 hPa NW 2.3 mph /  3.7 km/h 0.8 mph /  1.3 km/h 35 % 0.00 in /  0 mm
18:54 96.8 °F /  36 °C 63.8 °F /  17.7 °C 29.78 in /  1008.4 hPa NW 4.0 mph /  6.4 km/h 1.9 mph /  3.1 km/h 34 % 0.00 in /  0 mm
18:59 96.4 °F /  35.8 °C 64.3 °F /  17.9 °C 29.78 in /  1008.4 hPa WNW 2.3 mph /  3.7 km/h 1.2 mph /  1.9 km/h 35 % 0.00 in /  0 mm
19:04 96.0 °F /  35.6 °C 64.7 °F /  18.2 °C 29.78 in /  1008.4 hPa NW 2.3 mph /  3.7 km/h 1.7 mph /  2.7 km/h 36 % 0.00 in /  0 mm
19:09 95.5 °F /  35.3 °C 65.1 °F /  18.4 °C 29.78 in /  1008.4 hPa WNW 3.5 mph /  5.6 km/h 1.4 mph /  2.3 km/h 37 % 0.00 in /  0 mm
19:14 95.4 °F /  35.2 °C 65.0 °F /  18.3 °C 29.78 in /  1008.4 hPa NW 2.3 mph /  3.7 km/h 1.6 mph /  2.6 km/h 37 % 0.00 in /  0 mm
19:19 95.2 °F /  35.1 °C 64.8 °F /  18.2 °C 29.79 in /  1008.7 hPa NW 3.5 mph /  5.6 km/h 1.2 mph /  1.9 km/h 37 % 0.00 in /  0 mm
19:24 94.6 °F /  34.8 °C 65.1 °F /  18.4 °C 29.79 in /  1008.7 hPa NW 2.3 mph /  3.7 km/h 0.9 mph /  1.4 km/h 38 % 0.00 in /  0 mm
19:29 94.1 °F /  34.5 °C 64.6 °F /  18.1 °C 29.79 in /  1008.7 hPa NW 2.0 mph /  3.2 km/h 0.4 mph /  0.6 km/h 38 % 0.00 in /  0 mm
19:34 93.7 °F /  34.3 °C 65.0 °F /  18.3 °C 29.79 in /  1008.7 hPa SW 1.2 mph /  1.9 km/h 0.5 mph /  0.8 km/h 39 % 0.00 in /  0 mm
19:39 93.3 °F /  34.1 °C 64.7 °F /  18.2 °C 29.79 in /  1008.7 hPa Calm     39 % 0.00 in /  0 mm
19:44 92.8 °F /  33.8 °C 64.9 °F /  18.3 °C 29.79 in /  1008.7 hPa Calm     40 % 0.00 in /  0 mm
19:49 92.4 °F /  33.6 °C 64.6 °F /  18.1 °C 29.79 in /  1008.7 hPa West 1.2 mph /  1.9 km/h   40 % 0.00 in /  0 mm
19:54 92.1 °F /  33.4 °C 63.6 °F /  17.6 °C 29.80 in /  1009 hPa NW 1.2 mph /  1.9 km/h 0.8 mph /  1.3 km/h 39 % 0.00 in /  0 mm
19:59 91.8 °F /  33.2 °C 63.3 °F /  17.4 °C 29.80 in /  1009 hPa WNW 2.3 mph /  3.7 km/h 1.0 mph /  1.6 km/h 39 % 0.00 in /  0 mm
20:04 91.5 °F /  33.1 °C 63.1 °F /  17.3 °C 29.80 in /  1009 hPa WNW 1.2 mph /  1.9 km/h 0.7 mph /  1.1 km/h 39 % 0.00 in /  0 mm
20:09 91.3 °F /  32.9 °C 63.6 °F /  17.6 °C 29.80 in /  1009 hPa Calm     40 % 0.00 in /  0 mm
20:14 91.1 °F /  32.8 °C 63.4 °F /  17.4 °C 29.80 in /  1009 hPa WNW 1.2 mph /  1.9 km/h   40 % 0.00 in /  0 mm
20:19 90.9 °F /  32.7 °C 63.2 °F /  17.3 °C 29.80 in /  1009 hPa WNW 1.2 mph /  1.9 km/h 0.1 mph /  0.2 km/h 40 % 0.00 in /  0 mm
20:24 90.7 °F /  32.6 °C 63.1 °F /  17.3 °C 29.81 in /  1009.4 hPa Calm   0.4 mph /  0.6 km/h 40 % 0.00 in /  0 mm
20:29 90.5 °F /  32.5 °C 64.3 °F /  17.9 °C 29.81 in /  1009.4 hPa Calm     42 % 0.00 in /  0 mm
20:34 90.0 °F /  32.2 °C 63.8 °F /  17.7 °C 29.81 in /  1009.4 hPa Calm     42 % 0.00 in /  0 mm
20:39 89.7 °F /  32.1 °C 64.2 °F /  17.9 °C 29.81 in /  1009.4 hPa Calm     43 % 0.00 in /  0 mm
20:44 89.3 °F /  31.8 °C 64.5 °F /  18.1 °C 29.81 in /  1009.4 hPa Calm     44 % 0.00 in /  0 mm
20:49 88.8 °F /  31.6 °C 65.4 °F /  18.6 °C 29.81 in /  1009.4 hPa Calm     46 % 0.00 in /  0 mm
20:54 88.3 °F /  31.3 °C 65.5 °F /  18.6 °C 29.81 in /  1009.4 hPa Calm     47 % 0.00 in /  0 mm
20:59 87.8 °F /  31 °C 66.3 °F /  19.1 °C 29.81 in /  1009.4 hPa Calm     49 % 0.00 in /  0 mm
21:04 87.4 °F /  30.8 °C 66.5 °F /  19.2 °C 29.81 in /  1009.4 hPa Calm     50 % 0.00 in /  0 mm
21:09 87.2 °F /  30.7 °C 65.1 °F /  18.4 °C 29.81 in /  1009.4 hPa Calm     48 % 0.00 in /  0 mm
21:14 87.1 °F /  30.6 °C 66.8 °F /  19.3 °C 29.81 in /  1009.4 hPa Calm     51 % 0.00 in /  0 mm
21:19 86.4 °F /  30.2 °C 66.1 °F /  18.9 °C 29.81 in /  1009.4 hPa Calm     51 % 0.00 in /  0 mm
21:24 86.0 °F /  30 °C 65.8 °F /  18.8 °C 29.82 in /  1009.7 hPa Calm     51 % 0.00 in /  0 mm
21:29 85.6 °F /  29.8 °C 66.5 °F /  19.2 °C 29.82 in /  1009.7 hPa Calm     53 % 0.00 in /  0 mm
21:34 85.0 °F /  29.4 °C 67.0 °F /  19.4 °C 29.82 in /  1009.7 hPa Calm     55 % 0.00 in /  0 mm
21:39 84.5 °F /  29.2 °C 66.6 °F /  19.2 °C 29.82 in /  1009.7 hPa Calm     55 % 0.00 in /  0 mm
21:44 84.2 °F /  29 °C 66.8 °F /  19.3 °C 29.82 in /  1009.7 hPa Calm     56 % 0.00 in /  0 mm
21:49 84.0 °F /  28.9 °C 67.1 °F /  19.5 °C 29.82 in /  1009.7 hPa Calm     57 % 0.00 in /  0 mm
21:54 83.6 °F /  28.7 °C 67.3 °F /  19.6 °C 29.82 in /  1009.7 hPa Calm     58 % 0.00 in /  0 mm
21:59 83.3 °F /  28.5 °C 66.0 °F /  18.9 °C 29.82 in /  1009.7 hPa Calm     56 % 0.00 in /  0 mm
22:04 83.2 °F /  28.4 °C 66.9 °F /  19.4 °C 29.83 in /  1010 hPa Calm     58 % 0.00 in /  0 mm
22:09 83.1 °F /  28.4 °C 66.3 °F /  19.1 °C 29.83 in /  1010 hPa Calm     57 % 0.00 in /  0 mm
22:14 82.9 °F /  28.3 °C 67.1 °F /  19.5 °C 29.83 in /  1010 hPa Calm     59 % 0.00 in /  0 mm
22:19 82.8 °F /  28.2 °C 67.5 °F /  19.7 °C 29.83 in /  1010 hPa Calm     60 % 0.00 in /  0 mm
22:24 82.6 °F /  28.1 °C 67.8 °F /  19.9 °C 29.84 in /  1010.4 hPa Calm     61 % 0.00 in /  0 mm
22:29 82.1 °F /  27.8 °C 67.8 °F /  19.9 °C 29.84 in /  1010.4 hPa Calm     62 % 0.00 in /  0 mm
22:34 81.6 °F /  27.6 °C 66.8 °F /  19.3 °C 29.84 in /  1010.4 hPa WSW 1.2 mph /  1.9 km/h   61 % 0.00 in /  0 mm
22:37 81.5 °F /  27.5 °C 66.8 °F /  19.3 °C 29.84 in /  1010.4 hPa Calm     61 % 0.00 in /  0 mm
22:44 81.0 °F /  27.2 °C 66.8 °F /  19.3 °C 29.84 in /  1010.4 hPa Calm     62 % 0.00 in /  0 mm
22:49 80.9 °F /  27.2 °C 66.2 °F /  19 °C 29.84 in /  1010.4 hPa Calm     61 % 0.00 in /  0 mm
22:54 80.8 °F /  27.1 °C 66.1 °F /  18.9 °C 29.85 in /  1010.7 hPa SE 1.2 mph /  1.9 km/h 0.2 mph /  0.3 km/h 61 % 0.00 in /  0 mm
22:59 80.7 °F /  27.1 °C 66.0 °F /  18.9 °C 29.85 in /  1010.7 hPa SE 1.2 mph /  1.9 km/h   61 % 0.00 in /  0 mm
23:04 80.7 °F /  27.1 °C 66.5 °F /  19.2 °C 29.85 in /  1010.7 hPa SE 1.0 mph /  1.6 km/h   62 % 0.00 in /  0 mm
23:09 80.7 °F /  27.1 °C 66.5 °F /  19.2 °C 29.85 in /  1010.7 hPa Calm     62 % 0.00 in /  0 mm
23:14 80.3 °F /  26.8 °C 66.1 °F /  18.9 °C 29.85 in /  1010.7 hPa Calm     62 % 0.00 in /  0 mm
23:15 80.2 °F /  26.8 °C 66.0 °F /  18.9 °C 29.85 in /  1010.7 hPa Calm     62 % 0.00 in /  0 mm
23:29 79.5 °F /  26.4 °C 65.8 °F /  18.8 °C 29.86 in /  1011.1 hPa SE 1.2 mph /  1.9 km/h 0.1 mph /  0.2 km/h 63 % 0.00 in /  0 mm
23:34 79.5 °F /  26.4 °C 65.3 °F /  18.5 °C 29.86 in /  1011.1 hPa Calm   0.2 mph /  0.3 km/h 62 % 0.00 in /  0 mm
23:39 79.4 °F /  26.3 °C 64.8 °F /  18.2 °C 29.86 in /  1011.1 hPa Calm   0.1 mph /  0.2 km/h 61 % 0.00 in /  0 mm
23:44 79.3 °F /  26.3 °C 64.7 °F /  18.2 °C 29.86 in /  1011.1 hPa ESE 1.0 mph /  1.6 km/h 0.1 mph /  0.2 km/h 61 % 0.00 in /  0 mm
23:49 79.2 °F /  26.2 °C 63.6 °F /  17.6 °C 29.86 in /  1011.1 hPa ESE 1.2 mph /  1.9 km/h 0.1 mph /  0.2 km/h 59 % 0.00 in /  0 mm
23:54 79.2 °F /  26.2 °C 63.1 °F /  17.3 °C 29.86 in /  1011.1 hPa SE 1.2 mph /  1.9 km/h   58 % 0.00 in /  0 mm
23:59 79.0 °F /  26.1 °C 63.0 °F /  17.2 °C 29.86 in /  1011.1 hPa ESE 1.2 mph /  1.9 km/h 0.4 mph /  0.6 km/h 58 % 0.00 in /  0 mm
Park Place, Exeter, Tulare County, California, USA
Compliments of Weather Underground - 2.75 mb